Time;durP1;ratioP1;P1;durP2;ratioP2;P2;SDS_P1;SDS_P2;PMS_P1;PMS_P2;Temp;Humidity;BMP_temperature;BMP_pressure;BME280_temperature;BME280_humidity;BME280_pressure;Samples;Min_cycle;Max_cycle;Signal;HPM_P1;HPM_P2
2021/01/21 00:01:59;;;;;;;4.63;1.30;;;11.70;72.00;;;10.48;64.99;98093.34;4968909;28;20544;-92
2021/01/21 00:04:26;;;;;;;8.63;1.65;;;11.70;72.00;;;10.52;65.15;98099.94;4968659;28;20070;-92
2021/01/21 00:06:54;;;;;;;6.88;1.67;;;11.70;72.10;;;10.48;65.09;98085.19;4968762;28;20154;-91
2021/01/21 00:09:20;;;;;;;5.30;1.70;;;11.70;72.20;;;10.46;64.92;98090.06;4970152;28;20114;-92
2021/01/21 00:11:47;;;;;;;5.57;1.40;;;11.60;71.90;;;10.48;64.87;98077.03;4970372;28;20035;-92
2021/01/21 00:14:14;;;;;;;4.43;1.55;;;11.70;71.30;;;10.49;64.28;98084.13;4968714;28;20049;-92
2021/01/21 00:16:41;;;;;;;6.88;1.50;;;11.70;71.40;;;10.51;64.58;98068.41;4968160;28;20047;-90
2021/01/21 00:19:08;;;;;;;5.47;1.80;;;11.70;71.40;;;10.51;63.87;98062.97;4968287;28;20061;-92
2021/01/21 00:21:35;;;;;;;5.53;1.77;;;11.70;71.00;;;10.51;63.92;98060.25;4969507;28;20043;-91
2021/01/21 00:24:04;;;;;;;5.35;1.42;;;11.70;71.00;;;10.51;63.95;98052.09;4967903;28;20097;-91
2021/01/21 00:26:31;;;;;;;6.93;1.73;;;11.70;70.50;;;10.53;63.99;98047.22;4982855;28;20057;-90
2021/01/21 00:28:58;;;;;;;8.88;1.85;;;11.80;70.90;;;10.53;63.58;98041.78;4987668;28;20048;-91
2021/01/21 00:31:25;;;;;;;8.65;1.58;;;11.70;70.40;;;10.51;63.71;98037.66;4988554;28;20112;-91
2021/01/21 00:33:52;;;;;;;4.50;1.55;;;11.70;70.40;;;10.54;63.78;98026.28;4987602;28;20054;-91
2021/01/21 00:36:19;;;;;;;5.13;1.65;;;11.80;70.30;;;10.52;63.96;98023.81;4987289;28;20102;-91
2021/01/21 00:38:46;;;;;;;7.25;1.77;;;11.80;70.60;;;10.54;63.34;98016.22;4987878;28;20049;-90
2021/01/21 00:41:14;;;;;;;5.38;1.80;;;11.80;70.00;;;10.52;63.17;98001.22;4988954;28;20050;-91
2021/01/21 00:43:42;;;;;;;7.65;1.63;;;11.80;69.80;;;10.53;63.59;97987.41;4988333;28;20053;-90
2021/01/21 00:46:09;;;;;;;7.53;1.75;;;11.80;70.20;;;10.52;63.38;97980.28;4985618;28;20645;-90
2021/01/21 00:48:36;;;;;;;6.88;1.83;;;11.70;70.10;;;10.52;63.07;97958.53;4972023;28;20157;-91
2021/01/21 00:51:04;;;;;;;3.30;1.20;;;11.70;69.90;;;10.53;62.93;97960.19;4969834;28;20043;-90
2021/01/21 00:53:31;;;;;;;10.15;1.40;;;11.80;69.60;;;10.55;63.04;97957.25;4989854;28;20054;-90
2021/01/21 00:55:58;;;;;;;6.22;1.63;;;11.80;69.60;;;10.55;63.38;97959.97;4990713;28;20057;-91
2021/01/21 00:58:26;;;;;;;4.80;1.67;;;11.80;70.20;;;10.54;62.90;97964.53;4991634;28;20046;-90
2021/01/21 01:00:53;;;;;;;5.55;1.73;;;11.80;69.60;;;10.57;63.03;97933.34;4991469;28;20514;-90
2021/01/21 01:03:20;;;;;;;9.13;1.50;;;11.80;69.50;;;10.53;62.99;97943.88;4991438;28;20137;-90
2021/01/21 01:05:50;;;;;;;5.82;1.40;;;11.80;69.70;;;10.55;62.59;97960.78;4991109;28;20046;-90
2021/01/21 01:08:17;;;;;;;7.82;1.60;;;11.70;69.60;;;10.54;62.88;97950.13;4972812;28;20043;-91
2021/01/21 01:10:44;;;;;;;7.15;1.60;;;11.70;69.70;;;10.55;62.70;97930.03;4972889;28;20042;-90
2021/01/21 01:13:25;;;;;;;5.32;1.25;;;11.70;69.80;;;10.54;62.52;97940.06;4975664;28;20058;-90
2021/01/21 01:15:55;;;;;;;6.10;1.47;;;11.80;69.30;;;10.59;62.93;97935.81;4970511;28;20081;-90
2021/01/21 01:18:27;;;;;;;5.05;1.48;;;11.80;69.50;;;10.57;62.27;97928.72;4971214;28;20305;-90
2021/01/21 01:20:55;;;;;;;4.95;1.40;;;11.70;69.10;;;10.56;62.49;97929.78;4970241;28;20043;-91
2021/01/21 01:23:22;;;;;;;3.63;1.20;;;11.80;69.20;;;10.57;62.19;97914.28;4970119;28;20137;-90
2021/01/21 01:25:53;;;;;;;6.40;1.50;;;11.80;68.90;;;10.57;61.96;97896.06;4970302;28;20059;-90
2021/01/21 01:28:20;;;;;;;5.22;1.65;;;11.80;68.80;;;10.59;62.27;97890.41;4970263;28;20050;-90
2021/01/21 01:30:48;;;;;;;3.65;1.15;;;11.80;68.90;;;10.60;61.86;97886.59;4970077;28;20101;-91
2021/01/21 01:33:15;;;;;;;3.72;1.25;;;11.80;68.40;;;10.61;61.88;97885.53;4981931;28;20546;-90
2021/01/21 01:35:42;;;;;;;3.78;1.33;;;11.80;68.40;;;10.61;61.80;97873.84;4989440;28;20046;-91
2021/01/21 01:38:09;;;;;;;7.75;1.40;;;11.90;68.60;;;10.63;61.91;97882.56;4989352;28;20074;-90
2021/01/21 01:40:36;;;;;;;5.63;1.45;;;11.90;68.60;;;10.63;61.72;97871.69;4989951;28;20074;-90
2021/01/21 01:43:03;;;;;;;4.30;1.20;;;11.90;68.40;;;10.64;61.63;97867.88;4989450;28;20065;-90
2021/01/21 01:45:31;;;;;;;6.35;1.33;;;11.90;68.40;;;10.65;61.44;97866.81;4989695;28;20068;-90
2021/01/21 01:48:03;;;;;;;4.57;1.65;;;11.90;68.20;;;10.63;61.42;97871.69;4989277;28;20518;-91
2021/01/21 01:50:47;;;;;;;6.85;1.40;;;11.90;68.20;;;10.62;61.31;97864.59;4988853;28;20100;-91
2021/01/21 01:53:19;;;;;;;4.35;1.10;;;11.90;68.00;;;10.64;61.12;97860.56;4989250;28;20706;-91
2021/01/21 01:55:50;;;;;;;;;;;11.90;67.70;;;10.63;61.43;97867.06;4989058;28;20081;-90
2021/01/21 01:58:31;;;;;;;6.15;1.58;;;11.90;67.90;;;10.62;61.59;97831.94;4988363;28;20303;-90
2021/01/21 02:01:06;;;;;;;5.22;1.42;;;11.90;68.00;;;10.63;61.62;97825.44;4988693;28;20100;-90
2021/01/21 02:03:36;;;;;;;5.30;1.25;;;11.90;68.50;;;10.62;61.61;97821.06;4988381;28;20051;-90
2021/01/21 02:06:19;;;;;;;5.15;1.48;;;11.90;68.00;;;10.65;61.18;97826.84;4988735;28;20539;-90
2021/01/21 02:08:47;;;;;;;9.27;1.33;;;11.90;67.70;;;10.64;61.06;97818.91;4988162;28;20416;-89
2021/01/21 02:11:33;;;;;;;3.83;1.38;;;11.90;67.80;;;10.62;60.99;97807.47;4988282;28;20101;-90
2021/01/21 02:14:08;;;;;;;8.05;1.20;;;11.90;67.80;;;10.63;61.35;97806.41;4986043;28;20061;-89
2021/01/21 02:16:59;;;;;;;4.70;1.20;;;11.90;67.70;;;10.62;60.67;97794.69;4969041;28;20046;-91
2021/01/21 02:20:26;;;;;;;4.80;1.38;;;11.90;67.40;;;10.66;60.86;97806.72;4968315;28;20074;-90
2021/01/21 02:23:59;;;;;;;4.93;1.30;;;11.90;67.40;;;10.69;61.08;97794.50;4968956;28;20137;-90
2021/01/21 02:26:44;;;;;;;4.55;1.42;;;12.00;67.00;;;10.71;61.62;97793.19;4968381;28;20082;-90
2021/01/21 02:29:13;;;;;;;4.82;1.23;;;12.00;67.70;;;10.72;60.92;97791.31;4970094;28;20583;-89
2021/01/21 02:32:09;;;;;;;4.97;1.35;;;12.00;67.10;;;10.75;61.00;97766.28;4968548;28;20046;-90
2021/01/21 02:35:13;;;;;;;5.45;1.30;;;12.00;67.20;;;10.72;60.79;97745.88;4959965;28;20136;-90
2021/01/21 02:37:53;;;;;;;3.85;1.20;;;12.00;67.20;;;10.73;61.22;97754.84;4987984;28;20049;-90
2021/01/21 02:40:23;;;;;;;4.93;1.52;;;12.00;67.40;;;10.71;61.07;97751.56;4988300;28;20455;-91
2021/01/21 02:43:09;;;;;;;6.68;1.15;;;12.00;67.10;;;10.74;61.17;97770.09;4987683;28;20046;-90
2021/01/21 02:45:37;;;;;;;6.20;1.45;;;12.00;67.40;;;10.76;60.94;97752.44;4987853;28;20526;-90
2021/01/21 02:48:06;;;;;;;4.15;1.45;;;12.00;67.20;;;10.79;60.76;97755.72;4987619;28;20074;-91
2021/01/21 02:51:01;;;;;;;7.18;1.13;;;12.00;67.00;;;10.80;60.67;97746.50;4989215;28;20054;-91
2021/01/21 02:53:29;;;;;;;3.28;1.20;;;12.00;67.20;;;10.81;60.82;97746.22;4988479;28;20488;-91
2021/01/21 02:56:04;;;;;;;8.32;1.40;;;12.10;67.00;;;10.82;60.92;97750.59;4989369;28;20043;-90
2021/01/21 02:58:45;;;;;;;4.60;1.15;;;12.10;67.40;;;10.85;60.98;97741.94;4988630;28;20570;-91
2021/01/21 03:01:17;;;;;;;4.10;1.17;;;12.10;67.30;;;10.86;60.86;97740.84;4988338;28;20516;-90
2021/01/21 03:03:48;;;;;;;4.53;1.10;;;12.10;67.00;;;10.90;60.78;97725.66;4988078;28;20061;-91
2021/01/21 03:06:21;;;;;;;5.68;1.38;;;12.10;67.00;;;10.90;60.96;97750.16;4989480;28;20042;-91
2021/01/21 03:08:50;;;;;;;3.95;1.20;;;12.20;67.00;;;10.89;61.24;97723.19;4988834;28;20411;-91
2021/01/21 03:11:19;;;;;;;4.30;1.33;;;12.20;67.10;;;10.91;60.73;97727.31;4987600;28;20066;-91
2021/01/21 03:14:07;;;;;;;12.50;1.38;;;12.20;67.00;;;10.90;60.78;97722.94;4987938;28;20050;-92
2021/01/21 03:16:42;;;;;;;4.07;1.02;;;12.20;66.90;;;10.92;60.76;97718.06;4980223;28;20105;-90
2021/01/21 03:19:11;;;;;;;6.57;1.92;;;12.20;66.90;;;10.95;60.92;97722.19;4968206;28;20058;-90
2021/01/21 03:21:38;;;;;;;4.18;1.38;;;12.20;66.60;;;10.93;60.44;97703.38;4968873;28;20089;-90
2021/01/21 03:24:12;;;;;;;6.57;1.52;;;12.20;66.70;;;10.95;61.11;97700.41;4969177;28;20082;-91
2021/01/21 03:26:57;;;;;;;5.72;1.38;;;12.20;67.00;;;10.97;60.81;97709.16;4968528;28;20141;-91
2021/01/21 03:29:27;;;;;;;8.38;1.52;;;12.30;66.70;;;11.00;60.96;97724.13;4968758;28;20051;-91
2021/01/21 03:31:54;;;;;;;5.88;1.30;;;12.30;66.90;;;11.00;61.13;97703.16;4968791;28;20464;-91
2021/01/21 03:34:25;;;;;;;5.72;1.50;;;12.30;66.80;;;11.02;61.50;97720.06;4968690;28;20057;-90
2021/01/21 03:37:03;;;;;;;4.82;1.60;;;12.30;67.20;;;11.00;61.66;97707.81;4968715;28;20078;-91
2021/01/21 03:39:33;;;;;;;3.08;1.27;;;12.30;67.10;;;11.03;61.33;97710.03;4968637;28;20051;-91
2021/01/21 03:42:24;;;;;;;4.13;1.60;;;12.30;67.30;;;11.03;61.29;97718.19;4969165;28;20062;-90
2021/01/21 03:45:13;;;;;;;4.10;1.35;;;12.30;67.70;;;11.02;61.41;97709.19;4969040;28;20094;-91
2021/01/21 03:47:40;;;;;;;4.88;1.25;;;12.30;67.40;;;11.06;61.66;97706.75;4968972;28;20074;-92
2021/01/21 03:50:09;;;;;;;3.35;1.30;;;12.30;67.80;;;11.05;61.58;97695.06;4968811;28;20053;-92
2021/01/21 03:52:40;;;;;;;4.32;1.40;;;12.30;67.50;;;11.05;61.46;97689.63;4968570;28;20555;-92
2021/01/21 03:55:15;;;;;;;3.97;1.30;;;12.40;67.40;;;11.07;61.53;97682.03;4968404;28;20058;-93
2021/01/21 03:57:46;;;;;;;3.85;1.38;;;12.40;67.40;;;11.08;62.13;97708.16;4968124;28;20109;-92
2021/01/21 04:00:26;;;;;;;5.45;1.17;;;12.40;67.70;;;11.08;61.49;97689.13;4968096;28;20141;-92
2021/01/21 04:02:56;;;;;;;3.78;1.30;;;12.40;67.40;;;11.07;61.96;97692.09;4967750;28;20518;-89
2021/01/21 04:05:41;;;;;;;7.03;1.38;;;12.40;67.70;;;11.08;62.34;97699.16;4967690;28;20809;-92
2021/01/21 04:08:09;;;;;;;3.53;1.27;;;12.40;68.20;;;11.07;62.01;97713.88;4968099;28;20094;-91
2021/01/21 04:10:45;;;;;;;3.42;1.08;;;12.40;68.20;;;11.07;62.28;97702.97;4967369;28;20117;-92
2021/01/21 04:13:17;;;;;;;5.65;1.30;;;12.40;68.00;;;11.07;62.13;97728.28;4968427;28;20047;-91
2021/01/21 04:15:46;;;;;;;6.20;1.40;;;12.40;68.10;;;11.06;61.77;97704.88;4968443;28;20082;-92
2021/01/21 04:18:13;;;;;;;3.65;1.23;;;12.40;67.90;;;11.08;61.96;97704.59;4968078;28;20058;-92
2021/01/21 04:21:16;;;;;;;2.45;1.08;;;12.40;68.00;;;11.11;61.28;97707.63;4960312;28;20047;-93
2021/01/21 04:23:45;;;;;;;5.25;1.25;;;12.40;67.60;;;11.12;61.87;97690.25;4971697;28;20825;-92
2021/01/21 04:26:22;;;;;;;4.05;1.00;;;12.40;67.60;;;11.12;61.84;97686.72;4971273;28;20564;-92
2021/01/21 04:28:55;;;;;;;2.17;0.90;;;12.40;67.70;;;11.12;62.14;97686.72;4971589;28;20783;-91
2021/01/21 04:31:22;;;;;;;4.15;1.02;;;12.40;67.80;;;11.13;62.14;97696.50;4970861;28;20735;-93
2021/01/21 04:33:49;;;;;;;7.95;2.05;;;12.40;68.10;;;11.12;62.32;97694.88;4971219;28;20567;-92
2021/01/21 04:36:22;;;;;;;2.35;1.00;;;12.40;68.10;;;11.15;61.94;97700.59;4970718;28;20054;-92
2021/01/21 04:38:50;;;;;;;5.55;1.25;;;12.40;68.10;;;11.18;62.54;97710.16;4971114;28;20047;-92
2021/01/21 04:41:20;;;;;;;4.13;1.05;;;12.50;68.50;;;11.19;62.57;97690.00;4971585;28;20074;-93
2021/01/21 04:44:06;;;;;;;3.20;1.00;;;12.50;68.70;;;11.19;62.67;97692.75;4972485;28;20523;-92
2021/01/21 04:46:51;;;;;;;4.25;0.80;;;12.50;68.80;;;11.19;62.90;97695.47;4970837;28;20053;-92
2021/01/21 04:49:20;;;;;;;2.22;0.80;;;12.50;68.80;;;11.18;62.86;97682.94;4970711;28;20050;-93
2021/01/21 04:51:55;;;;;;;4.30;0.90;;;12.50;68.70;;;11.19;63.33;97654.63;4970292;28;20042;-90
2021/01/21 04:54:40;;;;;;;3.47;0.80;;;12.50;69.00;;;11.21;63.22;97654.38;4970805;28;20051;-89
2021/01/21 04:57:25;;;;;;;3.05;0.90;;;12.50;69.30;;;11.22;63.16;97658.75;4970869;28;20050;-90
2021/01/21 04:59:57;;;;;;;2.65;0.90;;;12.50;69.10;;;11.22;63.45;97662.28;4971588;28;20043;-88
2021/01/21 05:02:45;;;;;;;1.73;0.82;;;12.50;69.40;;;11.20;63.43;97637.22;4981057;28;20050;-92
2021/01/21 05:05:30;;;;;;;2.58;1.00;;;12.50;69.50;;;11.22;63.52;97635.06;4981380;28;20117;-90
2021/01/21 05:08:00;;;;;;;2.53;0.82;;;12.50;69.40;;;11.20;63.54;97653.56;4977546;28;20066;-94
2021/01/21 05:10:33;;;;;;;4.40;0.95;;;12.50;69.70;;;11.21;64.03;97666.06;4974872;28;20051;-89
2021/01/21 05:13:04;;;;;;;3.70;0.85;;;12.60;70.00;;;11.20;64.04;97639.13;4970521;28;20516;-89
2021/01/21 05:15:50;;;;;;;2.00;0.75;;;12.50;69.90;;;11.24;63.98;97649.25;4977640;28;20054;-91
2021/01/21 05:18:37;;;;;;;1.77;0.70;;;12.60;70.10;;;11.19;64.40;97651.91;5000724;28;20093;-92
2021/01/21 05:21:27;;;;;;;3.83;0.90;;;12.50;70.50;;;11.21;64.66;97644.31;4976607;28;20133;-91
2021/01/21 05:24:25;;;;;;;3.97;0.70;;;12.50;70.70;;;11.21;65.00;97636.13;4992437;28;20054;-90
2021/01/21 05:27:18;;;;;;;3.53;0.80;;;12.50;70.90;;;11.18;65.53;97649.47;4969483;28;20058;-90
2021/01/21 05:30:10;;;;;;;1.65;0.70;;;12.50;71.50;;;11.17;67.49;97654.06;4985619;28;20054;-91
2021/01/21 05:32:37;;;;;;;2.88;0.80;;;12.50;72.80;;;11.20;67.81;97680.78;5006322;28;20050;-91
2021/01/21 05:35:36;;;;;;;3.60;1.00;;;12.50;73.20;;;11.10;71.57;97860.31;4975747;28;20079;-89
2021/01/21 05:38:04;;;;;;;13.25;1.75;;;12.40;76.50;;;10.99;71.91;97864.81;4990886;28;20129;-90
2021/01/21 05:40:52;;;;;;;3.47;0.68;;;12.20;77.70;;;10.70;72.11;97877.75;4991293;28;20111;-91
2021/01/21 05:43:49;;;;;;;3.65;0.98;;;11.90;78.10;;;10.68;71.95;97923.41;4972409;28;20059;-91
2021/01/21 05:46:28;;;;;;;5.47;0.80;;;11.50;79.10;;;10.60;72.19;97926.56;4989896;28;20936;-91
2021/01/21 05:48:55;;;;;;;2.78;0.98;;;11.40;79.90;;;10.62;72.18;97930.69;4991176;28;20132;-91
2021/01/21 05:51:30;;;;;;;4.25;0.90;;;11.20;80.40;;;10.50;72.83;97960.69;4990777;28;20046;-91
2021/01/21 05:54:03;;;;;;;3.38;0.80;;;11.10;81.30;;;10.35;72.89;97979.47;4988982;28;20054;-89
2021/01/21 05:56:42;;;;;;;2.13;0.70;;;11.00;81.30;;;10.31;73.34;97981.03;4972344;28;20046;-88
2021/01/21 05:59:18;;;;;;;4.03;1.25;;;10.90;82.00;;;10.22;73.01;98006.94;4985382;28;20058;-89
2021/01/21 06:01:54;;;;;;;2.38;0.65;;;10.70;82.20;;;10.17;72.75;98004.94;4968835;28;20047;-89
2021/01/21 06:04:29;;;;;;;3.88;0.90;;;10.70;82.20;;;10.14;70.63;98022.56;4985126;28;20058;-89
2021/01/21 06:06:56;;;;;;;2.10;0.70;;;10.50;80.80;;;9.90;69.42;98004.69;4968881;28;20051;-87
2021/01/21 06:09:27;;;;;;;2.53;0.70;;;10.40;79.80;;;9.87;69.89;98016.06;4968537;28;20082;-88
2021/01/21 06:11:58;;;;;;;1.77;0.50;;;10.10;80.50;;;9.86;69.46;98026.13;4968995;28;20574;-90
2021/01/21 06:14:26;;;;;;;2.47;0.63;;;10.00;80.40;;;9.85;70.05;98037.22;4969201;28;20057;-88
2021/01/21 06:16:54;;;;;;;1.48;0.52;;;9.90;81.10;;;9.88;69.66;98045.72;4968456;28;20047;-88
2021/01/21 06:19:21;;;;;;;3.13;0.60;;;9.80;81.60;;;9.79;69.62;98053.41;4968646;28;20157;-89
2021/01/21 06:22:00;;;;;;;2.70;0.68;;;9.50;81.40;;;9.66;70.25;98059.09;4969285;28;20524;-91
2021/01/21 06:24:56;;;;;;;2.78;0.60;;;9.60;82.10;;;9.48;70.20;98053.81;4963214;28;20126;-91
2021/01/21 06:27:24;;;;;;;4.95;0.98;;;9.60;81.70;;;9.46;70.54;98066.78;4970456;28;20778;-89
2021/01/21 06:29:56;;;;;;;5.85;1.35;;;9.50;82.50;;;9.45;70.59;98057.84;4969068;28;20051;-90
2021/01/21 06:32:33;;;;;;;3.72;1.40;;;9.40;82.60;;;9.41;70.41;98083.81;4968812;28;20042;-89
2021/01/21 06:35:05;;;;;;;3.28;1.15;;;9.40;82.60;;;9.43;70.43;98080.88;4969635;28;20136;-89
2021/01/21 06:37:35;;;;;;;3.55;1.20;;;9.30;82.70;;;9.41;70.74;98093.84;4970137;28;20070;-89
2021/01/21 06:47:50;;;;;;;3.00;0.80;;;9.20;83.40;;;9.20;70.84;98077.09;4891071;29;20494;-90
2021/01/21 06:50:18;;;;;;;3.42;0.82;;;9.20;83.20;;;9.21;70.17;98092.28;4890051;29;20047;-87
2021/01/21 06:52:46;;;;;;;5.80;0.98;;;9.10;83.10;;;9.23;70.83;98086.63;4931655;28;20541;-87
2021/01/21 07:08:07;;;;;;;4.25;0.90;;;8.90;84.20;;;9.12;70.61;98137.13;4721715;30;20124;-87
2021/01/21 07:10:40;;;;;;;5.28;1.10;;;8.90;84.20;;;9.08;70.80;98134.06;4852662;29;20477;-87
2021/01/21 07:13:30;;;;;;;3.58;0.80;;;8.80;84.10;;;9.00;70.80;98147.94;4908846;29;20977;-87
2021/01/21 07:16:00;;;;;;;6.78;1.15;;;8.80;83.80;;;8.89;70.92;98165.88;4908360;29;20056;-89
2021/01/21 07:18:32;;;;;;;5.35;1.33;;;8.80;83.60;;;8.94;71.08;98168.69;4908626;29;20137;-90
2021/01/21 07:21:10;;;;;;;8.88;1.58;;;8.80;84.10;;;8.84;71.50;98159.50;4908529;29;20048;-88
2021/01/21 07:23:47;;;;;;;4.75;1.10;;;8.80;84.20;;;8.84;71.49;98176.59;4908417;29;20056;-87
2021/01/21 07:26:36;;;;;;;6.45;0.95;;;8.70;84.20;;;8.84;71.32;98187.44;4908038;29;20084;-87
2021/01/21 07:29:13;;;;;;;7.43;0.95;;;8.70;83.90;;;8.88;70.92;98194.03;4908835;29;20143;-87
2021/01/21 07:32:05;;;;;;;7.15;1.20;;;8.70;84.20;;;8.87;71.20;98176.13;4908776;29;20616;-87
2021/01/21 07:34:48;;;;;;;5.40;1.08;;;8.70;84.40;;;8.82;71.18;98167.84;4908603;29;20048;-89
2021/01/21 07:37:27;;;;;;;7.50;1.20;;;8.70;84.50;;;8.80;71.10;98162.66;4908182;29;20056;-88
2021/01/21 07:40:07;;;;;;;4.70;1.00;;;8.60;84.50;;;8.79;71.11;98168.31;4908797;29;20055;-90
2021/01/21 07:42:54;;;;;;;8.15;1.52;;;8.60;84.30;;;8.72;71.38;98181.13;4908505;29;20540;-90
2021/01/21 07:45:29;;;;;;;8.57;1.52;;;8.60;84.60;;;8.72;71.59;98179.25;4891968;29;20143;-90
2021/01/21 07:47:58;;;;;;;9.32;1.50;;;8.60;84.40;;;8.72;71.10;98186.56;4908234;29;20609;-90
2021/01/21 07:50:42;;;;;;;5.03;1.50;;;8.60;84.40;;;8.65;71.46;98175.81;4908118;29;20060;-89
2021/01/21 07:53:26;;;;;;;15.27;3.60;;;8.60;84.50;;;8.70;71.23;98181.38;4908240;29;20127;-90
2021/01/21 07:55:55;;;;;;;14.18;3.17;;;8.50;84.50;;;8.66;71.15;98184.75;4893798;29;20060;-89
2021/01/21 07:58:27;;;;;;;16.52;3.80;;;8.50;84.50;;;8.59;71.01;98201.94;4912219;29;20051;-89
2021/01/21 08:00:56;;;;;;;7.57;2.35;;;8.50;84.20;;;8.59;70.97;98201.94;4964780;28;20047;-90
2021/01/21 08:03:32;;;;;;;8.55;1.70;;;8.50;84.20;;;8.61;71.00;98215.28;4970828;28;20050;-89
2021/01/21 08:06:17;;;;;;;5.47;1.40;;;8.50;84.00;;;8.61;70.68;98236.97;4970583;28;20145;-89
2021/01/21 08:08:46;;;;;;;7.88;1.40;;;8.50;84.10;;;8.60;71.10;98244.28;4971199;28;20074;-90
2021/01/21 08:11:16;;;;;;;5.65;1.20;;;8.50;83.90;;;8.58;70.81;98242.84;4972453;28;20042;-89
2021/01/21 08:13:44;;;;;;;6.60;1.30;;;8.50;84.00;;;8.58;71.28;98242.84;4979013;28;20066;-89
2021/01/21 08:16:15;;;;;;;5.03;1.15;;;8.40;83.90;;;8.63;70.71;98247.59;4991386;28;20121;-91
2021/01/21 08:18:42;;;;;;;;;;;8.40;84.10;;;8.56;70.36;98255.81;5007068;28;20046;-91
2021/01/21 08:21:23;;;;;;;5.93;1.40;;;8.40;84.00;;;8.53;70.84;98251.66;5006543;28;20012;-90
2021/01/21 08:23:58;;;;;;;12.13;1.73;;;8.40;83.90;;;8.53;70.25;98259.81;4990263;28;20412;-89
2021/01/21 08:26:28;;;;;;;7.70;1.10;;;8.30;83.80;;;8.55;70.93;98263.13;4990922;28;20519;-90
2021/01/21 08:28:55;;;;;;;6.25;1.30;;;8.30;84.10;;;8.54;70.18;98266.88;4991170;28;20039;-90
2021/01/21 08:31:32;;;;;;;7.43;1.35;;;8.30;84.00;;;8.53;70.71;98273.38;4989530;28;20054;-89
2021/01/21 08:34:03;;;;;;;8.23;1.58;;;8.30;84.20;;;8.49;70.44;98283.00;4990961;28;20042;-88
2021/01/21 08:36:30;;;;;;;7.10;1.40;;;8.30;83.70;;;8.51;70.33;98280.03;4990706;28;20464;-89
2021/01/21 08:38:58;;;;;;;7.60;2.15;;;8.30;83.70;;;8.53;70.53;98278.78;4989142;28;20459;-87
2021/01/21 08:41:26;;;;;;;5.50;1.77;;;8.30;84.00;;;8.51;70.14;98275.47;4989431;28;20752;-88
2021/01/21 08:43:59;;;;;;;7.78;1.30;;;8.30;83.70;;;8.52;70.06;98287.13;4989558;28;20042;-88
2021/01/21 08:46:27;;;;;;;8.77;1.77;;;8.30;84.10;;;8.54;69.88;98285.84;4991086;28;20105;-87
2021/01/21 08:49:09;;;;;;;7.68;1.30;;;8.30;83.90;;;8.53;69.77;98296.91;4991835;28;20074;-90
2021/01/21 08:51:39;;;;;;;9.13;1.60;;;8.30;83.60;;;8.53;69.99;98295.03;4989951;28;20145;-90
2021/01/21 08:54:17;;;;;;;10.07;1.42;;;8.30;83.70;;;8.51;70.28;98308.00;4991209;28;20053;-90
2021/01/21 08:57:00;;;;;;;7.88;1.35;;;8.30;84.00;;;8.51;70.07;98307.16;4989130;28;20058;-90
2021/01/21 08:59:29;;;;;;;7.63;1.67;;;8.30;83.40;;;8.47;69.73;98314.91;4975449;28;20046;-90
2021/01/21 09:01:56;;;;;;;6.13;1.13;;;8.40;83.10;;;8.46;70.52;98307.84;4969706;28;20093;-90
2021/01/21 09:04:26;;;;;;;5.25;1.20;;;8.40;83.60;;;8.50;70.58;98298.19;4980529;28;20047;-89
2021/01/21 09:07:58;;;;;;;8.48;1.40;;;8.40;83.60;;;8.51;70.10;98313.44;4970000;28;20195;-89
2021/01/21 09:11:32;;;;;;;8.27;1.52;;;8.40;83.40;;;8.48;69.80;98307.63;4924883;28;20081;-89
2021/01/21 09:17:36;;;;;;;5.32;1.20;;;8.50;82.90;;;8.46;69.86;98320.56;4990598;28;20535;-89
2021/01/21 09:28:09;;;;;;;6.53;1.48;;;8.50;83.30;;;8.57;69.63;98336.91;4972174;28;20093;-89
2021/01/21 09:39:12;;;;;;;13.38;1.45;;;8.60;82.60;;;8.44;70.42;98342.47;4846762;29;20063;-89
2021/01/21 09:41:39;;;;;;;8.02;1.58;;;8.70;82.60;;;8.49;69.91;98347.22;4927194;29;20044;-89
2021/01/21 09:44:06;;;;;;;7.25;1.42;;;8.70;82.40;;;8.50;70.18;98343.47;4945455;29;20071;-90
2021/01/21 09:46:33;;;;;;;9.25;1.25;;;8.70;82.10;;;8.52;69.90;98347.59;4932125;29;20043;-90
2021/01/21 09:49:03;;;;;;;6.32;1.42;;;8.80;82.00;;;8.56;69.94;98350.69;4930953;29;20047;-89
2021/01/21 09:51:31;;;;;;;5.50;1.40;;;8.90;81.80;;;8.59;70.52;98353.78;4929969;29;20062;-89
2021/01/21 09:53:58;;;;;;;7.70;1.88;;;8.90;82.10;;;8.66;69.96;98350.16;4913286;29;20044;-90
2021/01/21 09:56:24;;;;;;;7.78;1.58;;;8.90;81.80;;;8.63;68.83;98358.78;4923756;29;20457;-90
2021/01/21 09:58:51;;;;;;;6.25;1.27;;;9.00;81.40;;;8.63;70.00;98362.31;4932248;29;20118;-89
2021/01/21 10:01:24;;;;;;;5.88;1.38;;;9.00;81.50;;;8.69;69.96;98360.56;4932094;29;20051;-90
2021/01/21 10:03:51;;;;;;;4.20;1.13;;;9.00;81.60;;;8.74;70.18;98360.72;4932135;29;20058;-88
2021/01/21 10:06:18;;;;;;;4.35;1.20;;;9.00;81.60;;;8.76;68.95;98369.47;4931873;29;20043;-89
2021/01/21 10:08:46;;;;;;;9.05;1.70;;;9.10;81.00;;;8.79;69.46;98366.28;4948399;29;20055;-88
2021/01/21 10:11:13;;;;;;;11.02;2.22;;;9.10;81.10;;;8.79;69.27;98358.97;4966843;28;20054;-89
2021/01/21 10:13:40;;;;;;;7.38;1.50;;;9.20;80.70;;;8.76;69.14;98364.03;4986583;28;20377;-89
2021/01/21 10:16:07;;;;;;;7.60;1.33;;;9.20;80.60;;;8.83;68.81;98367.47;4977106;28;20046;-89
2021/01/21 10:18:34;;;;;;;7.95;1.42;;;9.20;80.20;;;8.84;69.08;98360.19;4971970;28;20074;-89
2021/01/21 10:21:01;;;;;;;8.43;1.42;;;9.20;80.40;;;8.82;68.33;98357.72;4976643;28;20085;-90
2021/01/21 10:23:27;;;;;;;10.18;1.98;;;9.20;80.10;;;8.86;68.21;98350.78;4989018;28;20502;-88
2021/01/21 10:25:55;;;;;;;8.10;1.50;;;9.30;80.00;;;8.85;68.66;98351.81;4979049;28;20049;-89
2021/01/21 10:28:22;;;;;;;7.47;1.40;;;9.30;79.60;;;8.88;68.50;98350.53;4988722;28;20042;-89
2021/01/21 10:30:51;;;;;;;13.02;1.67;;;9.40;79.20;;;8.87;68.33;98351.59;4987809;28;20400;-88
2021/01/21 10:33:18;;;;;;;13.80;2.08;;;9.40;78.30;;;8.82;66.78;98348.75;4987756;28;20759;-90
2021/01/21 10:35:45;;;;;;;7.95;1.55;;;9.40;77.40;;;8.90;68.56;98362.81;4988018;28;20503;-92
2021/01/21 10:38:12;;;;;;;5.47;1.20;;;9.50;78.50;;;8.93;68.25;98361.53;4987454;28;20860;-89
2021/01/21 10:40:40;;;;;;;8.52;1.35;;;9.40;78.10;;;8.94;66.88;98352.34;4987746;28;20046;-90
2021/01/21 10:43:08;;;;;;;10.73;1.75;;;9.40;78.10;;;8.95;66.68;98362.97;4987731;28;20054;-91
2021/01/21 10:45:35;;;;;;;9.50;1.30;;;9.40;77.20;;;8.94;67.42;98366.72;4987716;28;20061;-90
2021/01/21 10:48:02;;;;;;;4.13;1.20;;;9.40;78.10;;;8.93;66.58;98367.81;4980662;28;20690;-90
2021/01/21 10:50:29;;;;;;;9.40;1.25;;;9.40;77.60;;;8.95;67.20;98365.69;4967492;28;20091;-90
2021/01/21 10:52:56;;;;;;;10.35;1.48;;;9.40;78.00;;;8.94;66.28;98361.31;4967656;28;20155;-89
2021/01/21 10:55:23;;;;;;;6.75;1.20;;;9.50;77.10;;;8.92;66.64;98360.69;4967987;28;20109;-92
2021/01/21 10:57:51;;;;;;;5.90;1.42;;;9.50;77.30;;;8.92;66.53;98363.41;4967745;28;20061;-90
2021/01/21 11:00:20;;;;;;;6.53;1.20;;;9.50;77.10;;;8.97;66.74;98358.16;4967628;28;20073;-90
2021/01/21 11:02:47;;;;;;;8.95;1.52;;;9.60;77.70;;;9.06;67.26;98364.06;4967764;28;20054;-91
2021/01/21 11:05:16;;;;;;;9.18;1.50;;;9.50;77.50;;;9.10;67.31;98367.16;4967342;28;20066;-90
2021/01/21 11:07:43;;;;;;;6.72;1.10;;;9.50;77.90;;;9.14;67.03;98371.09;4966291;28;20043;-90
2021/01/21 11:10:11;;;;;;;5.88;1.30;;;9.50;78.00;;;9.04;67.38;98371.63;4966370;28;20050;-91
2021/01/21 11:12:38;;;;;;;6.47;1.20;;;9.60;77.60;;;9.05;66.71;98377.91;4976524;28;20061;-90
2021/01/21 11:15:18;;;;;;;;;;;;;;;;;;;;;
2021/01/21 11:17:47;;;;;;;5.68;1.17;;;9.60;77.60;;;8.99;66.19;98369.59;4988726;28;20089;-90
2021/01/21 11:20:17;;;;;;;7.65;1.50;;;9.60;76.90;;;8.97;66.65;98371.72;4986917;28;20069;-90
2021/01/21 11:22:44;;;;;;;9.60;1.80;;;9.60;76.90;;;9.01;66.46;98372.09;4986915;28;20046;-90
2021/01/21 11:25:13;;;;;;;7.57;1.48;;;9.50;77.40;;;8.97;66.48;98377.13;4994351;28;20047;-89
2021/01/21 11:27:40;;;;;;;8.40;1.48;;;9.60;76.70;;;8.97;65.91;98371.72;4967426;28;20055;-90
2021/01/21 11:30:13;;;;;;;6.70;1.50;;;9.60;76.50;;;9.03;66.73;98377.28;4980587;28;20133;-90
2021/01/21 11:32:40;;;;;;;9.52;1.83;;;9.60;76.70;;;9.01;66.20;98377.50;4978499;28;20113;-89
2021/01/21 11:35:09;;;;;;;9.52;2.03;;;9.60;76.70;;;8.98;65.51;98380.66;4969087;28;20042;-90
2021/01/21 11:37:35;;;;;;;7.18;2.40;;;9.60;75.70;;;9.03;66.70;98375.41;4967449;28;20412;-89